Main page
METAR-TAF:

METAR-TAF

Airports :

Southampton Airport

Southampton, England

latitude: 50-54N, longitude: 001-24W, elevation: 9 m

Current weather observation

The report was made 40 minutes ago, at 19:20 UTC
Wind 4 kt from the South/Southwest
Temperature 18°C
Humidity 52%
Pressure 1026 hPa
Visibility 10 km or more
no clouds below 1500 m and no cumulonimbus

METAR: EGHI 231920Z 21004KT CAVOK 18/08 Q1026

Time: 21:00 (20:00 UTC)

Forecast

The report was made 3 hours and 6 minutes ago, at 16:54 UTC
Forecast valid from 23 at 18 UTC to 23 at 22 UTC
Wind 3 kt from variable directions
Visibility 10 km or more
no clouds below 1500 m and no cumulonimbus

TAF: EGHI 231654Z 2318/2322 VRB03KT CAVOK

Weather observations and forecasts of more than 4000 airports (METAR and TAF reports).

The available stations are represented by yellow and red dots on the map.

Hover mouse over dot to see the name of the station.

Then click to see weather observations and forecasts.

To change the map : click on the green buttons with a black cross to zoom in, on the green button with a dash to zoom out, or on the green arrows for adjacent maps.


METAR-TAF: